Jamison, Pennsylvania
Current Conditions -  °F | °C
As of 4:54 PM on Friday 19 Dec 2014 (Local Time) from KDYL Reporting Station
Clear Clear  
Wind Chill: 25°   Ceiling: Unl
Heat Index: 32°   Visibility: 10mi
Dew Point: 22°   Wind: 8mph
Humidity: 66%   Direction: 350°N
Pressure: 30.11"   Gusts: NA
Location:  40.27°N, 75.1°W
Report Text: KDYL 192154Z AUTO 35007KT 10SM CLR 00/M06 A3011 RMK AO2 SLP202 T00001056
Loading
Personal Weather Stations






























Interactive Weather Map New forecast layout! Learn more

10-Day Weather Forecast

Advertisements
Track Severe Weather on mobile